Time;durP1;ratioP1;P1;durP2;ratioP2;P2;SDS_P1;SDS_P2;PMS_P1;PMS_P2;Temp;Humidity;BMP_temperature;BMP_pressure;BME280_temperature;BME280_humidity;BME280_pressure;Samples;Min_cycle;Max_cycle;Signal;HPM_P1;HPM_P2
2024/01/19 00:02:11;;;;;;;0.68;0.68;;;4.00;99.90;;;;;;5015000;28;20057;-70
2024/01/19 00:04:36;;;;;;;0.30;0.30;;;4.00;99.90;;;;;;5014364;28;20072;-71
2024/01/19 00:07:02;;;;;;;1.95;0.65;;;4.00;99.90;;;;;;5014831;28;20034;-72
2024/01/19 00:09:28;;;;;;;1.08;0.98;;;4.00;99.90;;;;;;5015102;28;20471;-71
2024/01/19 00:11:53;;;;;;;1.40;0.40;;;3.90;99.90;;;;;;5015387;28;20183;-71
2024/01/19 00:14:19;;;;;;;0.55;0.55;;;3.90;99.90;;;;;;5014644;28;20030;-70
2024/01/19 00:16:44;;;;;;;3.40;0.80;;;4.00;99.90;;;;;;5033815;28;20026;-71
2024/01/19 00:19:10;;;;;;;0.93;0.90;;;4.00;99.90;;;;;;5034057;28;20025;-71
2024/01/19 00:21:45;;;;;;;2.20;1.08;;;3.90;99.90;;;;;;5034417;28;20025;-71
2024/01/19 00:24:12;;;;;;;1.13;0.43;;;3.90;99.90;;;;;;5034281;28;20477;-71
2024/01/19 00:26:38;;;;;;;0.20;0.20;;;3.90;99.90;;;;;;5034137;28;20401;-71
2024/01/19 00:29:04;;;;;;;0.75;0.40;;;3.80;99.90;;;;;;5032602;28;20044;-70
2024/01/19 00:31:30;;;;;;;1.92;1.08;;;3.80;99.90;;;;;;5034005;28;20036;-70
2024/01/19 00:33:56;;;;;;;0.28;0.28;;;3.80;99.90;;;;;;5033750;28;20477;-71
2024/01/19 00:36:22;;;;;;;5.28;0.80;;;3.80;99.90;;;;;;5034349;28;20571;-70
2024/01/19 00:38:47;;;;;;;0.73;0.73;;;3.90;99.90;;;;;;5034182;28;20104;-70
2024/01/19 00:41:13;;;;;;;0.20;0.20;;;3.80;99.90;;;;;;5034154;28;20049;-71
2024/01/19 00:43:39;;;;;;;1.55;0.85;;;3.80;99.90;;;;;;5034024;28;20036;-70
2024/01/19 00:46:04;;;;;;;0.40;0.40;;;3.80;99.90;;;;;;5033934;28;20405;-71
2024/01/19 00:48:30;;;;;;;7.63;1.00;;;3.90;99.90;;;;;;5033775;28;20369;-70
2024/01/19 00:50:56;;;;;;;0.52;0.52;;;3.90;99.90;;;;;;5033841;28;20032;-71
2024/01/19 00:53:21;;;;;;;0.57;0.57;;;3.90;99.90;;;;;;5032585;28;20489;-71
2024/01/19 00:55:47;;;;;;;0.20;0.20;;;3.90;99.90;;;;;;5033763;28;20485;-71
2024/01/19 00:58:14;;;;;;;0.25;0.25;;;3.90;99.90;;;;;;5033436;28;20044;-70
2024/01/19 01:00:39;;;;;;;6.13;2.25;;;4.00;99.90;;;;;;5033790;28;20100;-70
2024/01/19 01:03:05;;;;;;;0.20;0.20;;;3.90;99.90;;;;;;5033628;28;20537;-70
2024/01/19 01:05:30;;;;;;;0.50;0.50;;;3.90;99.90;;;;;;5033940;28;20037;-71
2024/01/19 01:07:56;;;;;;;0.38;0.38;;;3.90;99.90;;;;;;5033598;28;20025;-71
2024/01/19 01:10:22;;;;;;;0.60;0.45;;;3.90;99.90;;;;;;5032951;28;20213;-71
2024/01/19 01:12:47;;;;;;;0.73;0.40;;;3.90;99.90;;;;;;5033154;28;20056;-69
2024/01/19 01:15:13;;;;;;;0.20;0.20;;;3.80;99.90;;;;;;5032914;28;20120;-70
2024/01/19 01:17:39;;;;;;;0.20;0.20;;;3.80;99.90;;;;;;5033147;28;20137;-71
2024/01/19 01:20:06;;;;;;;0.43;0.30;;;3.80;99.90;;;;;;5033374;28;20108;-70
2024/01/19 01:22:32;;;;;;;1.23;0.45;;;3.80;99.90;;;;;;5033290;28;20036;-70
2024/01/19 01:24:58;;;;;;;0.20;0.20;;;3.90;99.90;;;;;;5033270;28;20033;-71
2024/01/19 01:27:23;;;;;;;0.28;0.28;;;4.00;99.90;;;;;;5033211;28;20450;-71
2024/01/19 01:29:49;;;;;;;0.30;0.30;;;3.90;99.90;;;;;;5032515;28;20053;-70
2024/01/19 01:32:14;;;;;;;0.68;0.68;;;4.00;99.90;;;;;;5032894;28;20037;-69
2024/01/19 01:34:40;;;;;;;2.22;2.05;;;4.00;99.90;;;;;;5033260;28;20079;-70
2024/01/19 01:37:06;;;;;;;1.00;0.70;;;4.00;99.90;;;;;;5033325;28;20033;-70
2024/01/19 01:39:31;;;;;;;0.20;0.20;;;4.00;99.90;;;;;;5033042;28;20026;-70
2024/01/19 01:41:57;;;;;;;7.10;1.23;;;4.00;99.90;;;;;;5033097;28;20032;-70
2024/01/19 01:44:23;;;;;;;0.20;0.20;;;4.00;99.90;;;;;;5032901;28;20087;-70
2024/01/19 01:46:48;;;;;;;0.28;0.28;;;4.00;99.90;;;;;;5032983;28;20084;-71
2024/01/19 01:49:14;;;;;;;0.32;0.30;;;4.00;99.90;;;;;;5032969;28;20021;-71
2024/01/19 01:51:40;;;;;;;1.77;1.23;;;4.00;99.90;;;;;;5032590;28;20488;-70
2024/01/19 01:54:07;;;;;;;0.52;0.52;;;4.00;99.90;;;;;;5032829;28;20033;-70
2024/01/19 01:56:34;;;;;;;1.08;0.93;;;3.90;99.90;;;;;;5032877;28;20065;-72
2024/01/19 01:59:00;;;;;;;0.80;0.50;;;3.90;99.90;;;;;;5032858;28;20254;-72
2024/01/19 02:01:26;;;;;;;1.25;0.85;;;3.80;99.90;;;;;;5032892;28;20552;-70
2024/01/19 02:03:55;;;;;;;3.88;0.40;;;3.80;99.90;;;;;;5032948;28;20026;-70
2024/01/19 02:06:21;;;;;;;0.20;0.20;;;3.80;99.90;;;;;;5032664;28;20018;-71
2024/01/19 02:08:47;;;;;;;0.20;0.20;;;3.80;99.90;;;;;;5032788;28;20108;-71
2024/01/19 02:11:13;;;;;;;0.20;0.20;;;3.80;99.90;;;;;;5032746;28;20132;-70
2024/01/19 02:13:39;;;;;;;0.75;0.57;;;3.80;99.90;;;;;;5031046;28;20061;-72
2024/01/19 02:16:04;;;;;;;0.35;0.35;;;3.80;99.90;;;;;;5032219;28;20037;-70
2024/01/19 02:18:30;;;;;;;0.57;0.57;;;3.70;99.90;;;;;;5032671;28;20088;-71
2024/01/19 02:20:56;;;;;;;0.20;0.20;;;3.70;99.90;;;;;;5032489;28;20057;-72
2024/01/19 02:23:25;;;;;;;0.20;0.20;;;3.70;99.90;;;;;;5032602;28;20424;-69
2024/01/19 02:25:51;;;;;;;1.10;0.70;;;3.70;99.90;;;;;;5032394;28;20033;-71
2024/01/19 02:28:18;;;;;;;0.20;0.20;;;3.70;99.90;;;;;;5032384;28;20025;-71
2024/01/19 02:30:44;;;;;;;0.20;0.20;;;3.70;99.90;;;;;;5032398;28;20521;-70
2024/01/19 02:33:10;;;;;;;0.45;0.45;;;3.80;99.90;;;;;;5031204;28;20032;-71
2024/01/19 02:35:35;;;;;;;0.20;0.20;;;3.70;99.90;;;;;;5031037;28;20045;-71
2024/01/19 02:38:01;;;;;;;1.23;0.43;;;3.80;99.90;;;;;;5032051;28;20034;-71
2024/01/19 02:40:27;;;;;;;12.65;0.68;;;3.80;99.90;;;;;;5032045;28;20052;-71
2024/01/19 02:42:52;;;;;;;1.90;0.77;;;3.80;99.90;;;;;;5033585;28;20038;-70
2024/01/19 02:45:18;;;;;;;1.50;0.77;;;3.90;99.90;;;;;;5036415;28;20083;-70
2024/01/19 02:47:43;;;;;;;0.30;0.30;;;3.90;99.90;;;;;;5036147;28;20108;-71
2024/01/19 02:50:09;;;;;;;0.30;0.30;;;3.90;99.90;;;;;;5035978;28;20362;-70
2024/01/19 02:52:35;;;;;;;0.30;0.30;;;3.90;99.90;;;;;;5036539;28;20029;-70
2024/01/19 02:55:01;;;;;;;0.52;0.52;;;3.90;99.90;;;;;;5036028;28;20041;-70
2024/01/19 02:57:27;;;;;;;1.77;1.67;;;3.90;99.90;;;;;;5035810;28;20029;-71
2024/01/19 02:59:53;;;;;;;3.10;1.25;;;3.90;99.90;;;;;;5036036;28;20030;-70
2024/01/19 03:02:18;;;;;;;0.57;0.57;;;3.90;99.90;;;;;;5036011;28;20026;-71
2024/01/19 03:04:44;;;;;;;0.50;0.50;;;3.90;99.90;;;;;;5035650;28;20033;-72
2024/01/19 03:07:09;;;;;;;0.50;0.50;;;3.80;99.90;;;;;;5036033;28;20029;-72
2024/01/19 03:09:35;;;;;;;0.60;0.60;;;3.80;99.90;;;;;;5035377;28;20080;-71
2024/01/19 03:12:00;;;;;;;0.60;0.60;;;3.70;99.90;;;;;;5035801;28;20091;-71
2024/01/19 03:14:26;;;;;;;0.70;0.70;;;3.70;99.90;;;;;;5035844;28;20037;-72
2024/01/19 03:16:53;;;;;;;0.70;0.70;;;3.70;99.90;;;;;;5035569;28;20488;-71
2024/01/19 03:19:18;;;;;;;0.90;0.90;;;3.60;99.90;;;;;;5035313;28;20033;-72
2024/01/19 03:21:44;;;;;;;0.90;0.90;;;3.60;99.90;;;;;;5035581;28;20026;-71
2024/01/19 03:24:09;;;;;;;3.22;1.52;;;3.70;99.90;;;;;;5035530;28;20053;-71
2024/01/19 03:26:35;;;;;;;2.33;1.77;;;3.80;99.90;;;;;;5034891;28;20495;-71
2024/01/19 03:29:00;;;;;;;2.65;1.92;;;3.80;99.90;;;;;;5035362;28;20470;-71
2024/01/19 03:31:26;;;;;;;1.45;1.35;;;3.80;99.90;;;;;;5035606;28;20044;-70
2024/01/19 03:33:52;;;;;;;1.63;1.50;;;3.70;99.90;;;;;;5034010;28;20039;-70
2024/01/19 03:36:17;;;;;;;1.40;1.40;;;3.60;99.90;;;;;;5035280;28;20044;-71
2024/01/19 03:38:43;;;;;;;1.30;1.30;;;3.40;99.90;;;;;;5034997;28;20036;-71
2024/01/19 03:41:08;;;;;;;1.40;1.40;;;3.30;99.90;;;;;;5035421;28;20036;-71
2024/01/19 03:43:34;;;;;;;1.50;1.50;;;3.20;99.90;;;;;;5035137;28;20072;-70
2024/01/19 03:46:00;;;;;;;1.90;1.80;;;3.20;99.90;;;;;;5035258;28;20490;-72
2024/01/19 03:48:25;;;;;;;1.60;1.60;;;3.10;99.90;;;;;;5035113;28;20426;-70
2024/01/19 03:50:51;;;;;;;1.80;1.80;;;3.00;99.90;;;;;;5035414;28;20032;-71
2024/01/19 03:53:16;;;;;;;1.80;1.80;;;3.00;99.90;;;;;;5034502;28;20036;-71
2024/01/19 03:55:42;;;;;;;1.80;1.80;;;2.90;99.90;;;;;;5034744;28;20045;-70
2024/01/19 03:58:07;;;;;;;2.40;2.20;;;2.80;99.90;;;;;;5035057;28;20039;-71
2024/01/19 04:00:33;;;;;;;1.90;1.90;;;2.80;99.90;;;;;;5034824;28;20041;-70
2024/01/19 04:02:58;;;;;;;2.75;2.15;;;2.80;99.90;;;;;;5034799;28;20072;-70
2024/01/19 04:05:24;;;;;;;1.90;1.90;;;2.80;99.90;;;;;;5034693;28;20418;-71
2024/01/19 04:07:50;;;;;;;1.80;1.80;;;2.80;99.90;;;;;;5034667;28;20431;-70
2024/01/19 04:10:15;;;;;;;1.60;1.60;;;2.80;99.90;;;;;;5034413;28;20452;-71
2024/01/19 04:12:41;;;;;;;2.25;2.15;;;2.80;99.90;;;;;;5033884;28;20053;-70
2024/01/19 04:15:07;;;;;;;1.90;1.90;;;2.80;99.90;;;;;;5034044;28;20037;-71
2024/01/19 04:17:32;;;;;;;1.90;1.85;;;2.80;99.90;;;;;;5033259;28;20060;-71
2024/01/19 04:19:58;;;;;;;1.70;1.70;;;2.90;99.90;;;;;;5033251;28;20030;-71
2024/01/19 04:22:25;;;;;;;1.90;1.90;;;2.90;99.90;;;;;;5034363;28;20021;-71
2024/01/19 04:24:50;;;;;;;1.90;1.90;;;2.90;99.90;;;;;;5032730;28;20339;-71
2024/01/19 04:27:16;;;;;;;1.90;1.90;;;3.00;99.90;;;;;;5034088;28;20040;-71
2024/01/19 04:29:41;;;;;;;2.13;2.10;;;3.00;99.90;;;;;;5034239;28;20476;-71
2024/01/19 04:32:07;;;;;;;3.53;2.33;;;3.00;99.90;;;;;;5034212;28;20104;-71
2024/01/19 04:34:32;;;;;;;2.22;2.00;;;3.00;99.90;;;;;;5034225;28;20092;-71
2024/01/19 04:36:58;;;;;;;1.88;1.88;;;3.00;99.90;;;;;;5034473;28;20531;-71
2024/01/19 04:39:24;;;;;;;2.25;2.15;;;3.00;99.90;;;;;;5033886;28;20022;-71
2024/01/19 04:41:49;;;;;;;2.30;2.15;;;3.00;99.90;;;;;;5033581;28;20040;-71
2024/01/19 04:44:15;;;;;;;2.08;2.03;;;3.10;99.90;;;;;;5034075;28;20100;-72
2024/01/19 04:46:40;;;;;;;1.98;1.98;;;3.10;99.90;;;;;;5032579;28;20488;-73
2024/01/19 04:49:06;;;;;;;2.72;1.98;;;3.10;99.90;;;;;;5032312;28;20037;-71
2024/01/19 04:51:31;;;;;;;2.28;2.20;;;3.10;99.90;;;;;;5033532;28;20021;-71
2024/01/19 04:53:59;;;;;;;2.00;2.00;;;3.10;99.90;;;;;;5033191;28;20481;-71
2024/01/19 04:56:24;;;;;;;2.30;2.10;;;3.00;99.90;;;;;;5033576;28;20044;-71
2024/01/19 04:58:50;;;;;;;2.20;2.20;;;3.00;99.90;;;;;;5033813;28;20108;-71
2024/01/19 05:01:17;;;;;;;2.10;2.10;;;2.90;99.90;;;;;;5033557;28;20056;-71
2024/01/19 05:03:43;;;;;;;2.30;2.30;;;2.90;99.90;;;;;;5033608;28;20462;-71
2024/01/19 05:06:08;;;;;;;2.30;2.30;;;2.80;99.90;;;;;;5032743;28;20113;-71
2024/01/19 05:08:34;;;;;;;2.10;2.10;;;2.80;99.90;;;;;;5033737;28;20033;-72
2024/01/19 05:11:00;;;;;;;2.20;2.20;;;2.80;99.90;;;;;;5032277;28;20049;-71
2024/01/19 05:13:25;;;;;;;2.22;2.22;;;2.80;99.90;;;;;;5031820;28;20047;-72
2024/01/19 05:15:51;;;;;;;2.20;2.20;;;2.80;99.90;;;;;;5032806;28;20400;-72
2024/01/19 05:18:16;;;;;;;2.30;2.30;;;2.70;99.90;;;;;;5033208;28;20466;-72
2024/01/19 05:20:42;;;;;;;2.30;2.30;;;2.70;99.90;;;;;;5033565;28;20113;-72
2024/01/19 05:23:08;;;;;;;2.28;2.28;;;2.70;99.90;;;;;;5033245;28;20033;-71
2024/01/19 05:25:33;;;;;;;2.30;2.30;;;2.70;99.90;;;;;;5033256;28;20784;-71
2024/01/19 05:27:59;;;;;;;2.10;2.10;;;2.60;99.90;;;;;;5033253;28;20131;-71
2024/01/19 05:30:24;;;;;;;2.20;2.20;;;2.60;99.90;;;;;;5032854;28;20385;-71
2024/01/19 05:32:50;;;;;;;2.10;2.10;;;2.60;99.90;;;;;;5032516;28;20456;-70
2024/01/19 05:35:15;;;;;;;2.10;2.10;;;2.60;99.90;;;;;;5032789;28;20462;-71
2024/01/19 05:37:41;;;;;;;2.47;2.38;;;2.70;99.90;;;;;;5033413;28;20608;-72
2024/01/19 05:40:07;;;;;;;2.30;2.30;;;2.70;99.90;;;;;;5032655;28;20033;-71
2024/01/19 05:42:33;;;;;;;2.35;2.25;;;2.70;99.90;;;;;;5032942;28;20026;-71
2024/01/19 05:44:59;;;;;;;2.50;2.40;;;2.70;99.90;;;;;;5032962;28;20458;-71
2024/01/19 05:47:25;;;;;;;1.90;1.90;;;2.70;99.90;;;;;;5032939;28;20033;-71
2024/01/19 05:49:50;;;;;;;2.35;2.25;;;2.70;99.90;;;;;;5031565;28;20091;-71
2024/01/19 05:52:16;;;;;;;2.00;2.00;;;2.80;99.90;;;;;;5032395;28;20032;-71
2024/01/19 05:54:41;;;;;;;2.00;2.00;;;2.80;99.90;;;;;;5032725;28;20041;-71
2024/01/19 05:57:09;;;;;;;2.00;2.00;;;2.80;99.90;;;;;;5032899;28;20400;-72
2024/01/19 05:59:38;;;;;;;1.90;1.90;;;2.80;99.90;;;;;;5032804;28;20115;-71
2024/01/19 06:02:04;;;;;;;1.80;1.80;;;2.80;99.90;;;;;;5033009;28;20036;-71
2024/01/19 06:04:33;;;;;;;1.90;1.90;;;2.80;99.90;;;;;;5032802;28;20025;-70
2024/01/19 06:06:59;;;;;;;1.83;1.83;;;2.80;99.90;;;;;;5032658;28;20109;-71
2024/01/19 06:09:24;;;;;;;1.60;1.60;;;2.80;99.90;;;;;;5032172;28;20549;-72
2024/01/19 06:11:50;;;;;;;3.00;2.80;;;2.80;99.90;;;;;;5033196;28;20104;-71
2024/01/19 06:14:16;;;;;;;1.90;1.90;;;2.80;99.90;;;;;;5029027;28;20087;-71
2024/01/19 06:16:41;;;;;;;1.90;1.90;;;2.80;99.90;;;;;;5032513;28;20420;-71
2024/01/19 06:19:07;;;;;;;1.80;1.80;;;2.80;99.90;;;;;;5039036;28;20025;-70
2024/01/19 06:21:32;;;;;;;1.90;1.90;;;2.70;99.90;;;;;;5039092;28;20049;-71
2024/01/19 06:23:58;;;;;;;2.10;2.10;;;2.70;99.90;;;;;;5038976;28;20061;-70
2024/01/19 06:26:23;;;;;;;1.70;1.70;;;2.70;99.90;;;;;;5039326;28;20022;-70
2024/01/19 06:28:49;;;;;;;1.80;1.80;;;2.70;99.90;;;;;;5039197;28;20493;-70
2024/01/19 06:31:14;;;;;;;3.70;3.15;;;2.70;99.90;;;;;;5039287;28;20441;-71
2024/01/19 06:33:40;;;;;;;2.10;2.10;;;2.80;99.90;;;;;;5039463;28;20045;-70
2024/01/19 06:36:09;;;;;;;14.15;2.85;;;2.80;99.90;;;;;;5039203;28;20095;-71
2024/01/19 06:38:35;;;;;;;1.88;1.88;;;2.80;99.90;;;;;;5039067;28;20068;-71
2024/01/19 06:41:02;;;;;;;7.82;3.00;;;2.90;99.90;;;;;;5038872;28;20377;-71
2024/01/19 06:43:28;;;;;;;1.50;1.50;;;2.90;99.90;;;;;;5039215;28;20060;-71
2024/01/19 06:45:53;;;;;;;1.83;1.80;;;3.00;99.90;;;;;;5039299;28;20065;-71
2024/01/19 06:48:19;;;;;;;1.60;1.60;;;3.00;99.90;;;;;;5037662;28;20033;-71
2024/01/19 06:50:49;;;;;;;1.70;1.70;;;3.00;99.90;;;;;;5038350;28;20037;-70
2024/01/19 06:53:15;;;;;;;1.50;1.50;;;3.00;99.90;;;;;;5037530;28;20116;-70
2024/01/19 06:55:41;;;;;;;1.50;1.50;;;3.00;99.90;;;;;;5038993;28;20113;-71
2024/01/19 06:58:06;;;;;;;1.75;1.75;;;3.00;99.90;;;;;;5038975;28;20524;-72
2024/01/19 07:00:32;;;;;;;1.50;1.50;;;3.00;99.90;;;;;;5038933;28;20029;-72
2024/01/19 07:02:59;;;;;;;4.43;1.90;;;3.00;99.90;;;;;;5038734;28;20464;-71
2024/01/19 07:05:25;;;;;;;1.70;1.70;;;3.00;99.90;;;;;;5038644;28;20022;-70
2024/01/19 07:07:51;;;;;;;1.70;1.70;;;3.00;99.90;;;;;;5038555;28;20043;-72
2024/01/19 07:10:18;;;;;;;1.60;1.60;;;3.00;99.90;;;;;;5038051;28;20041;-72
2024/01/19 07:12:44;;;;;;;1.70;1.70;;;3.00;99.90;;;;;;5037647;28;20095;-71
2024/01/19 07:15:09;;;;;;;1.50;1.50;;;3.10;99.90;;;;;;5036898;28;20050;-69
2024/01/19 07:17:35;;;;;;;1.50;1.50;;;3.20;99.90;;;;;;5038503;28;20029;-72
2024/01/19 07:20:03;;;;;;;1.40;1.40;;;3.20;99.90;;;;;;5038721;28;20063;-72
2024/01/19 07:22:29;;;;;;;1.38;1.38;;;3.30;99.90;;;;;;5038436;28;20028;-70
2024/01/19 07:24:54;;;;;;;1.20;1.20;;;3.40;99.90;;;;;;5038408;28;20029;-70
2024/01/19 07:27:20;;;;;;;2.42;2.25;;;3.40;99.90;;;;;;5038652;28;20033;-70
2024/01/19 07:29:45;;;;;;;1.10;1.10;;;3.50;99.90;;;;;;5035126;28;20042;-70
2024/01/19 07:32:11;;;;;;;1.20;1.20;;;3.50;99.90;;;;;;5035634;28;20026;-71
2024/01/19 07:34:36;;;;;;;1.30;1.30;;;3.50;99.90;;;;;;5043576;28;20474;-70
2024/01/19 07:37:02;;;;;;;1.50;1.50;;;3.50;99.90;;;;;;5034078;28;20064;-70
2024/01/19 07:39:28;;;;;;;1.20;1.20;;;3.50;99.90;;;;;;5035351;28;20047;-71
2024/01/19 07:41:53;;;;;;;1.00;1.00;;;3.60;99.90;;;;;;5034775;28;20443;-70
2024/01/19 07:44:19;;;;;;;1.00;1.00;;;3.60;99.90;;;;;;5035398;28;20025;-70
2024/01/19 07:46:45;;;;;;;1.60;1.60;;;3.60;99.90;;;;;;5034438;28;20029;-71
2024/01/19 07:49:11;;;;;;;0.70;0.70;;;3.60;99.90;;;;;;5034731;28;20740;-70
2024/01/19 07:51:37;;;;;;;1.45;1.42;;;3.60;99.90;;;;;;5033187;28;20096;-70
2024/01/19 07:54:03;;;;;;;0.70;0.70;;;3.50;99.90;;;;;;5034658;28;20026;-71
2024/01/19 07:56:28;;;;;;;0.80;0.80;;;3.50;99.90;;;;;;5033188;28;20049;-71
2024/01/19 07:58:54;;;;;;;1.50;1.40;;;3.50;99.90;;;;;;5034457;28;20025;-70
2024/01/19 08:01:20;;;;;;;0.80;0.80;;;3.50;99.90;;;;;;5034563;28;20530;-69
2024/01/19 08:03:45;;;;;;;0.80;0.80;;;3.40;99.90;;;;;;5033864;28;20451;-72
2024/01/19 08:06:11;;;;;;;0.70;0.70;;;3.40;99.90;;;;;;5033416;28;20065;-69
2024/01/19 08:08:36;;;;;;;1.17;1.17;;;3.40;99.90;;;;;;5035167;28;20039;-71
2024/01/19 08:11:02;;;;;;;0.70;0.70;;;3.40;99.90;;;;;;5034977;28;20067;-71
2024/01/19 08:13:28;;;;;;;1.10;1.10;;;3.50;99.90;;;;;;5034768;28;20428;-71
2024/01/19 08:15:53;;;;;;;0.80;0.80;;;3.50;99.90;;;;;;5034705;28;20103;-70
2024/01/19 08:18:19;;;;;;;0.70;0.70;;;3.60;99.90;;;;;;5033964;28;20025;-70
2024/01/19 08:20:44;;;;;;;1.10;1.08;;;3.60;99.90;;;;;;5033086;28;20025;-71
2024/01/19 08:23:10;;;;;;;1.00;1.00;;;3.70;99.90;;;;;;5032877;28;20114;-71
2024/01/19 08:25:35;;;;;;;0.80;0.80;;;3.70;99.90;;;;;;5034465;28;20469;-69
2024/01/19 08:28:01;;;;;;;2.05;1.80;;;3.70;99.90;;;;;;5034364;28;20425;-71
2024/01/19 08:30:27;;;;;;;0.88;0.88;;;3.70;99.90;;;;;;5032838;28;20362;-70
2024/01/19 08:32:52;;;;;;;5.47;1.23;;;3.70;99.90;;;;;;5034099;28;20029;-71
2024/01/19 08:35:18;;;;;;;0.77;0.77;;;3.70;99.90;;;;;;5033970;28;20041;-71
2024/01/19 08:37:44;;;;;;;0.70;0.70;;;3.90;99.90;;;;;;5033569;28;20074;-71
2024/01/19 08:40:12;;;;;;;0.50;0.50;;;4.10;99.90;;;;;;5033050;28;20029;-71
2024/01/19 08:42:39;;;;;;;0.60;0.60;;;4.30;99.90;;;;;;5033977;28;20056;-72
2024/01/19 08:45:05;;;;;;;0.60;0.60;;;4.40;99.90;;;;;;5034030;28;20056;-71
2024/01/19 08:47:31;;;;;;;0.60;0.60;;;4.40;99.90;;;;;;5033208;28;20044;-71
2024/01/19 08:49:56;;;;;;;0.70;0.70;;;4.40;99.90;;;;;;5033859;28;20029;-71
2024/01/19 08:52:22;;;;;;;0.80;0.80;;;4.40;99.90;;;;;;5033514;28;20033;-72
2024/01/19 08:54:48;;;;;;;0.90;0.90;;;4.40;99.90;;;;;;5033909;28;20116;-71
2024/01/19 08:57:14;;;;;;;1.25;1.25;;;4.30;99.90;;;;;;5033577;28;20029;-71
2024/01/19 08:59:40;;;;;;;0.90;0.90;;;4.30;99.90;;;;;;5033626;28;20033;-71
2024/01/19 09:02:06;;;;;;;0.90;0.90;;;4.30;99.90;;;;;;5033584;28;20029;-71
2024/01/19 09:04:35;;;;;;;0.90;0.90;;;4.30;99.90;;;;;;5033952;28;20112;-71
2024/01/19 09:07:00;;;;;;;0.90;0.90;;;4.40;99.90;;;;;;5033780;28;20029;-71
2024/01/19 09:09:26;;;;;;;0.70;0.70;;;4.50;99.90;;;;;;5033433;28;20096;-72
2024/01/19 09:11:52;;;;;;;0.70;0.70;;;4.60;99.90;;;;;;5033928;28;20029;-71
2024/01/19 09:14:18;;;;;;;0.80;0.80;;;4.60;99.90;;;;;;5033490;28;20412;-71
2024/01/19 09:16:44;;;;;;;0.90;0.90;;;4.60;99.90;;;;;;5033032;28;20030;-71
2024/01/19 09:19:11;;;;;;;0.80;0.80;;;4.60;99.90;;;;;;5033249;28;20028;-71
2024/01/19 09:21:39;;;;;;;0.80;0.80;;;4.70;99.90;;;;;;5033362;28;20100;-71
2024/01/19 09:24:06;;;;;;;0.80;0.80;;;4.70;99.90;;;;;;5033173;28;20021;-71
2024/01/19 09:26:31;;;;;;;0.90;0.90;;;4.70;99.90;;;;;;5033419;28;20032;-70
2024/01/19 09:28:57;;;;;;;1.42;1.30;;;4.70;99.90;;;;;;5032972;28;20030;-71
2024/01/19 09:31:23;;;;;;;0.80;0.80;;;4.70;99.90;;;;;;5033027;28;20519;-71
2024/01/19 09:33:48;;;;;;;0.80;0.80;;;4.80;99.90;;;;;;5033434;28;20026;-71
2024/01/19 09:36:14;;;;;;;0.75;0.75;;;4.90;99.90;;;;;;5033309;28;20052;-71
2024/01/19 09:38:39;;;;;;;1.02;1.02;;;4.90;99.90;;;;;;5032945;28;20029;-71
2024/01/19 09:41:23;;;;;;;3.22;3.00;;;5.00;99.90;;;;;;5032902;28;20017;-71
2024/01/19 09:43:53;;;;;;;0.50;0.50;;;5.10;99.90;;;;;;5033280;28;20164;-71
2024/01/19 09:46:21;;;;;;;0.73;0.73;;;5.20;99.90;;;;;;5032880;28;20029;-71
2024/01/19 09:49:06;;;;;;;1.00;0.45;;;5.30;99.90;;;;;;5032920;28;20037;-70
2024/01/19 09:52:13;;;;;;;0.50;0.50;;;5.40;99.90;;;;;;5032613;28;20416;-70
2024/01/19 09:54:40;;;;;;;0.40;0.40;;;5.60;99.90;;;;;;5031764;28;20469;-71
2024/01/19 09:57:05;;;;;;;0.30;0.30;;;6.00;99.90;;;;;;5032723;28;20057;-70
2024/01/19 09:59:32;;;;;;;3.28;1.48;;;6.50;99.90;;;;;;5032280;28;20080;-70
2024/01/19 10:01:59;;;;;;;2.08;0.50;;;7.00;99.90;;;;;;5033000;28;20037;-71
2024/01/19 10:04:26;;;;;;;0.50;0.50;;;7.60;99.90;;;;;;5031400;28;20523;-71
2024/01/19 10:06:52;;;;;;;0.30;0.30;;;8.10;99.90;;;;;;5032794;28;20025;-71
2024/01/19 10:09:19;;;;;;;0.50;0.50;;;8.60;99.90;;;;;;5031054;28;20061;-71
2024/01/19 10:11:49;;;;;;;0.13;0.13;;;9.20;99.90;;;;;;5032548;28;20033;-71
2024/01/19 10:14:15;;;;;;;0.22;0.22;;;9.80;99.90;;;;;;5032570;28;20100;-71
2024/01/19 10:16:42;;;;;;;0.10;0.10;;;10.50;99.90;;;;;;5032232;28;20050;-72
2024/01/19 10:19:09;;;;;;;0.45;0.45;;;10.90;99.90;;;;;;5032191;28;20025;-71
2024/01/19 10:21:35;;;;;;;0.10;0.10;;;11.40;99.90;;;;;;5031225;28;20033;-71
2024/01/19 10:24:11;;;;;;;1.27;0.30;;;11.90;99.90;;;;;;5032166;28;20489;-71
2024/01/19 10:26:40;;;;;;;2.33;0.30;;;12.20;99.50;;;;;;5032190;28;20112;-71
2024/01/19 10:29:14;;;;;;;1.55;0.52;;;12.20;99.00;;;;;;5032835;28;20099;-72
2024/01/19 10:31:41;;;;;;;0.40;0.40;;;12.00;99.30;;;;;;5032082;28;20036;-72
2024/01/19 10:34:16;;;;;;;0.98;0.25;;;12.20;99.20;;;;;;5032553;28;20025;-72
2024/01/19 10:36:41;;;;;;;0.10;0.10;;;12.40;99.00;;;;;;5032533;28;20029;-71
2024/01/19 10:39:29;;;;;;;0.22;0.22;;;12.70;98.80;;;;;;5032426;28;20036;-72
2024/01/19 10:42:07;;;;;;;1.08;0.55;;;13.00;98.30;;;;;;5030709;28;20056;-72
2024/01/19 10:44:34;;;;;;;0.30;0.30;;;13.10;97.90;;;;;;5032210;28;20646;-72
2024/01/19 10:47:00;;;;;;;3.30;1.90;;;13.10;97.90;;;;;;5032040;28;20018;-71
2024/01/19 10:49:26;;;;;;;1.65;0.65;;;13.10;97.80;;;;;;5032597;28;20377;-71
2024/01/19 10:51:52;;;;;;;0.20;0.20;;;13.20;97.70;;;;;;5030950;28;20036;-71
2024/01/19 10:54:25;;;;;;;2.47;0.30;;;13.20;97.90;;;;;;5031826;28;20029;-71
2024/01/19 10:57:04;;;;;;;0.10;0.10;;;13.30;98.00;;;;;;5032144;28;20040;-73
2024/01/19 10:59:30;;;;;;;0.32;0.32;;;13.20;97.90;;;;;;5032439;28;20024;-71
2024/01/19 11:02:02;;;;;;;0.38;0.38;;;13.10;98.10;;;;;;5031022;28;20112;-73
2024/01/19 11:04:28;;;;;;;;;;;13.20;98.00;;;;;;5034174;28;20033;-73
2024/01/19 11:06:54;;;;;;;0.40;0.40;;;13.20;97.90;;;;;;5035803;28;20060;-72
2024/01/19 11:09:19;;;;;;;0.10;0.10;;;13.20;98.10;;;;;;5035606;28;20100;-74
2024/01/19 11:11:53;;;;;;;0.20;0.20;;;12.90;98.50;;;;;;5036041;28;20359;-73
2024/01/19 11:14:25;;;;;;;0.28;0.25;;;12.70;98.80;;;;;;5035933;28;20026;-72
2024/01/19 11:16:52;;;;;;;0.45;0.45;;;12.50;99.10;;;;;;5036034;28;20069;-70
2024/01/19 11:19:20;;;;;;;1.48;0.50;;;12.60;98.80;;;;;;5035380;28;20033;-71
2024/01/19 11:21:46;;;;;;;4.95;0.75;;;12.50;99.50;;;;;;5035196;28;20030;-71
2024/01/19 11:24:14;;;;;;;0.10;0.10;;;12.50;98.80;;;;;;5035122;28;20021;-72
2024/01/19 11:27:09;;;;;;;4.68;1.25;;;12.60;99.30;;;;;;5034657;28;20095;-71
2024/01/19 11:29:49;;;;;;;3.40;0.45;;;12.70;98.60;;;;;;5033536;28;20026;-75
2024/01/19 11:32:14;;;;;;;0.10;0.10;;;12.80;98.30;;;;;;5031081;28;20430;-73
2024/01/19 11:34:45;;;;;;;1.10;0.50;;;13.10;98.10;;;;;;5034057;28;20052;-71
2024/01/19 11:37:39;;;;;;;7.25;1.08;;;12.90;97.40;;;;;;5034823;28;20105;-71
2024/01/19 11:40:06;;;;;;;1.88;0.77;;;12.80;97.80;;;;;;5029539;28;20042;-74
2024/01/19 11:42:35;;;;;;;0.82;0.55;;;13.00;97.50;;;;;;5034885;28;20071;-74
2024/01/19 11:45:01;;;;;;;1.10;0.98;;;13.10;97.50;;;;;;5032196;28;20033;-73
2024/01/19 11:47:35;;;;;;;2.28;1.30;;;13.20;97.70;;;;;;5034188;28;20024;-71
2024/01/19 11:50:09;;;;;;;4.35;1.42;;;13.00;97.90;;;;;;5032310;28;20052;-73
2024/01/19 11:52:35;;;;;;;1.02;0.90;;;12.90;98.10;;;;;;5034109;28;20033;-73
2024/01/19 11:55:26;;;;;;;3.70;1.02;;;12.80;98.20;;;;;;5030014;28;20031;-74
2024/01/19 11:57:55;;;;;;;2.42;1.13;;;12.70;98.40;;;;;;5031995;28;20096;-70
2024/01/19 12:00:21;;;;;;;0.60;0.60;;;12.60;98.20;;;;;;5028752;28;20013;-73
2024/01/19 12:02:48;;;;;;;1.55;1.17;;;12.30;98.50;;;;;;5033235;28;20465;-74
2024/01/19 12:05:18;;;;;;;1.58;0.75;;;12.30;98.90;;;;;;5035870;28;20025;-73
2024/01/19 12:07:44;;;;;;;1.70;1.00;;;12.20;99.50;;;;;;5047320;28;20033;-73
2024/01/19 12:10:19;;;;;;;4.90;1.17;;;12.20;99.10;;;;;;5038181;28;20038;-72
2024/01/19 12:12:46;;;;;;;0.73;0.57;;;12.20;98.90;;;;;;5023371;28;20469;-73
2024/01/19 12:15:15;;;;;;;6.13;2.50;;;12.10;99.20;;;;;;5045770;28;20041;-70
2024/01/19 12:17:42;;;;;;;0.55;0.55;;;12.00;99.10;;;;;;5046350;28;20060;-71
2024/01/19 12:20:09;;;;;;;1.48;0.60;;;11.70;99.80;;;;;;5038292;28;20026;-71
2024/01/19 12:22:35;;;;;;;2.90;0.95;;;11.50;99.90;;;;;;5053532;28;20029;-70
2024/01/19 12:25:22;;;;;;;2.40;1.38;;;11.50;99.90;;;;;;5047646;28;20021;-71
2024/01/19 12:27:48;;;;;;;1.35;1.13;;;11.10;99.90;;;;;;5047017;28;20044;-72
2024/01/19 12:30:21;;;;;;;3.25;1.27;;;10.60;99.90;;;;;;5037496;28;20022;-73
2024/01/19 12:32:47;;;;;;;0.32;0.32;;;10.40;99.90;;;;;;5049820;28;20032;-70
2024/01/19 12:35:13;;;;;;;0.30;0.30;;;10.40;99.90;;;;;;5042215;28;20045;-70
2024/01/19 12:37:38;;;;;;;1.02;0.80;;;10.70;99.90;;;;;;5042420;28;20489;-73
2024/01/19 12:40:15;;;;;;;0.35;0.35;;;11.00;99.90;;;;;;5048990;28;20438;-73
2024/01/19 12:42:41;;;;;;;0.32;0.32;;;11.10;99.90;;;;;;5021458;28;20025;-71
2024/01/19 12:45:08;;;;;;;4.10;0.82;;;11.00;99.90;;;;;;5045925;28;20474;-73
2024/01/19 12:47:34;;;;;;;1.55;0.30;;;11.20;99.90;;;;;;5044733;28;20116;-73
2024/01/19 12:50:00;;;;;;;1.55;0.70;;;11.40;99.90;;;;;;5039084;28;20025;-72
2024/01/19 12:52:26;;;;;;;1.17;0.70;;;11.60;99.90;;;;;;5049883;28;20033;-70
2024/01/19 12:54:51;;;;;;;5.47;0.77;;;11.80;99.90;;;;;;5039078;28;20033;-70